createdAt,value
2022-12-20T00:00:15.576Z,20.70
2022-12-20T00:02:45.173Z,21.27
2022-12-20T00:05:15.513Z,21.43
2022-12-20T00:07:44.241Z,20.47
2022-12-20T00:10:13.760Z,21.67
2022-12-20T00:12:42.654Z,20.67
2022-12-20T00:15:12.195Z,21.10
2022-12-20T00:17:41.514Z,21.67
2022-12-20T00:20:11.939Z,21.70
2022-12-20T00:22:42.121Z,20.60
2022-12-20T00:25:11.399Z,21.10
2022-12-20T00:27:40.134Z,22.00
2022-12-20T00:30:10.080Z,20.37
2022-12-20T00:32:38.949Z,20.60
2022-12-20T00:35:08.284Z,21.27
2022-12-20T00:37:37.286Z,21.23
2022-12-20T00:40:09.208Z,21.27
2022-12-20T00:42:37.770Z,20.93
2022-12-20T00:45:07.733Z,20.90
2022-12-20T00:47:36.468Z,21.33
2022-12-20T00:50:05.689Z,20.73
2022-12-20T00:52:34.378Z,21.30
2022-12-20T00:55:03.090Z,20.83
2022-12-20T00:57:33.299Z,20.60
2022-12-20T01:00:02.376Z,20.87
2022-12-20T01:02:31.180Z,21.67
2022-12-20T01:05:01.344Z,20.13
2022-12-20T01:07:30.047Z,20.90
2022-12-20T01:09:58.989Z,20.60
2022-12-20T01:12:27.627Z,20.30
2022-12-20T01:14:57.727Z,20.57
2022-12-20T01:17:26.456Z,20.23
2022-12-20T01:19:55.288Z,20.57
2022-12-20T01:22:24.064Z,20.40
2022-12-20T01:24:53.170Z,20.87
2022-12-20T01:27:21.960Z,19.70
2022-12-20T01:29:50.738Z,20.47
2022-12-20T01:32:22.342Z,21.77
2022-12-20T01:34:50.998Z,20.97
2022-12-20T01:37:19.924Z,20.70
2022-12-20T01:39:48.661Z,20.83
2022-12-20T01:42:18.117Z,21.73
2022-12-20T01:44:58.475Z,21.27
2022-12-20T01:47:32.893Z,20.47
2022-12-20T01:50:04.304Z,20.47
2022-12-20T01:52:37.443Z,20.70
2022-12-20T01:55:11.690Z,21.07
2022-12-20T01:57:46.076Z,20.57
2022-12-20T02:00:16.372Z,21.97
2022-12-20T02:02:48.069Z,20.47
2022-12-20T02:05:18.027Z,20.57
2022-12-20T02:07:50.574Z,21.37
2022-12-20T02:10:22.084Z,21.17
2022-12-20T02:12:55.544Z,21.43
2022-12-20T02:15:36.778Z,21.10
2022-12-20T02:18:17.827Z,21.30
2022-12-20T02:21:17.736Z,21.57
2022-12-20T02:24:28.041Z,21.37
2022-12-20T02:27:29.454Z,20.63
2022-12-20T02:30:07.759Z,20.47
2022-12-20T02:32:42.040Z,20.50
2022-12-20T02:35:14.476Z,21.43
2022-12-20T02:37:51.315Z,21.57
2022-12-20T02:40:24.866Z,21.37
2022-12-20T02:42:58.791Z,20.77
2022-12-20T02:45:34.138Z,21.87
2022-12-20T02:48:07.006Z,21.27
2022-12-20T02:50:40.026Z,20.90
2022-12-20T02:53:09.707Z,20.90
2022-12-20T02:55:46.879Z,21.30
2022-12-20T02:58:25.951Z,21.33
2022-12-20T03:01:04.601Z,21.17
2022-12-20T03:03:34.132Z,20.17
2022-12-20T03:06:03.660Z,20.13
2022-12-20T03:08:32.569Z,22.00
2022-12-20T03:11:02.395Z,21.20
2022-12-20T03:13:33.087Z,20.87
2022-12-20T03:16:08.822Z,20.53
2022-12-20T03:18:37.893Z,21.20
2022-12-20T03:21:06.923Z,20.17
2022-12-20T03:23:35.708Z,21.80
2022-12-20T03:26:04.466Z,21.23
2022-12-20T03:28:41.310Z,21.37
2022-12-20T03:31:13.319Z,21.23
2022-12-20T03:33:48.160Z,21.30
2022-12-20T03:36:16.809Z,20.17
2022-12-20T03:38:45.771Z,20.70
2022-12-20T03:41:14.918Z,20.47
2022-12-20T03:43:43.703Z,21.07
2022-12-20T03:46:15.243Z,21.33
2022-12-20T03:48:44.313Z,21.03
2022-12-20T03:51:14.128Z,20.90
2022-12-20T03:53:42.848Z,21.13
2022-12-20T03:56:12.955Z,21.40
2022-12-20T03:58:42.910Z,20.97
2022-12-20T04:01:25.063Z,21.10
2022-12-20T04:03:54.831Z,21.73
2022-12-20T04:06:24.673Z,20.57
2022-12-20T04:08:53.504Z,20.90
2022-12-20T04:11:28.440Z,20.83
2022-12-20T04:14:13.332Z,20.57
2022-12-20T04:16:43.560Z,21.17
2022-12-20T04:19:13.309Z,21.43
2022-12-20T04:21:48.631Z,20.83
2022-12-20T04:24:19.680Z,21.23
2022-12-20T04:26:57.278Z,20.93
2022-12-20T04:29:26.028Z,21.57
2022-12-20T04:31:56.472Z,21.67
2022-12-20T04:34:25.125Z,20.87
2022-12-20T04:36:54.177Z,20.57
2022-12-20T04:39:33.089Z,20.97
2022-12-20T04:42:17.448Z,21.20
2022-12-20T04:44:46.292Z,21.70
2022-12-20T04:47:19.620Z,22.17
2022-12-20T04:49:48.401Z,20.80
2022-12-20T04:52:40.849Z,21.13
2022-12-20T04:55:12.214Z,22.13
2022-12-20T04:57:40.827Z,21.10
2022-12-20T05:00:10.647Z,20.00
2022-12-20T05:02:45.640Z,21.97
2022-12-20T05:05:17.710Z,21.87
2022-12-20T05:07:51.304Z,21.10
2022-12-20T05:10:20.944Z,21.03
2022-12-20T05:12:50.840Z,21.43
2022-12-20T05:15:30.637Z,20.70
2022-12-20T05:18:02.153Z,20.17
2022-12-20T05:20:40.425Z,20.60
2022-12-20T05:23:27.910Z,21.63
2022-12-20T05:26:18.552Z,21.70
2022-12-20T05:28:48.127Z,23.07
2022-12-20T05:31:16.961Z,22.70
2022-12-20T05:33:47.340Z,21.47
2022-12-20T05:36:17.665Z,22.07
2022-12-20T05:38:46.945Z,21.37
2022-12-20T05:41:19.303Z,21.43
2022-12-20T05:43:50.804Z,21.73
2022-12-20T05:46:19.800Z,22.07
2022-12-20T05:48:56.997Z,23.83
2022-12-20T05:51:51.465Z,23.07
2022-12-20T05:54:25.639Z,22.87
2022-12-20T05:57:11.514Z,21.77
2022-12-20T05:59:42.583Z,23.83
2022-12-20T06:02:19.822Z,24.07
2022-12-20T06:04:53.543Z,23.07
2022-12-20T06:07:24.453Z,22.57
2022-12-20T06:09:58.175Z,22.80
2022-12-20T06:13:02.430Z,22.60
2022-12-20T06:15:32.629Z,22.47
2022-12-20T06:18:02.768Z,22.17
2022-12-20T06:20:33.188Z,22.00
2022-12-20T06:23:04.019Z,22.03
2022-12-20T06:25:39.944Z,22.10
2022-12-20T06:28:33.479Z,22.93
2022-12-20T06:31:02.329Z,21.80
2022-12-20T06:33:52.987Z,22.17
2022-12-20T06:36:25.084Z,22.33
2022-12-20T06:38:54.495Z,22.67
2022-12-20T06:41:23.292Z,22.23
2022-12-20T06:43:53.483Z,21.73
2022-12-20T06:46:22.339Z,22.00
2022-12-20T06:48:54.895Z,21.47
2022-12-20T06:51:25.265Z,22.43
2022-12-20T06:53:54.167Z,21.67
2022-12-20T06:56:23.792Z,22.60
2022-12-20T06:58:52.649Z,21.27
2022-12-20T07:01:21.585Z,22.30
2022-12-20T07:03:50.660Z,21.20
2022-12-20T07:06:19.313Z,21.30
2022-12-20T07:08:53.328Z,22.00
2022-12-20T07:11:21.931Z,20.63
2022-12-20T07:13:52.451Z,21.73
2022-12-20T07:16:21.152Z,21.10
2022-12-20T07:18:51.267Z,21.50
2022-12-20T07:21:20.447Z,21.93
2022-12-20T07:23:49.642Z,21.27
2022-12-20T07:26:19.693Z,21.47
2022-12-20T07:28:48.541Z,20.73
2022-12-20T07:31:17.262Z,20.83
2022-12-20T07:33:45.820Z,22.03
2022-12-20T07:36:17.103Z,20.83
2022-12-20T07:38:45.890Z,21.23
2022-12-20T07:41:17.269Z,20.27
2022-12-20T07:43:48.456Z,20.73
2022-12-20T07:46:17.752Z,21.00
2022-12-20T07:48:46.491Z,20.03
2022-12-20T07:51:19.327Z,21.40
2022-12-20T07:53:53.987Z,20.93
2022-12-20T07:56:24.366Z,21.03
2022-12-20T07:58:58.622Z,20.10
2022-12-20T08:01:28.454Z,21.13
2022-12-20T08:04:02.275Z,20.20
2022-12-20T08:06:31.778Z,21.10
2022-12-20T08:09:04.158Z,20.77
2022-12-20T08:11:38.392Z,20.80
2022-12-20T08:14:09.699Z,21.67
2022-12-20T08:16:38.763Z,19.93
2022-12-20T08:19:07.570Z,20.43
2022-12-20T08:21:36.393Z,20.83
2022-12-20T08:24:05.276Z,20.67
2022-12-20T08:26:38.038Z,20.10
2022-12-20T08:29:08.819Z,21.33
2022-12-20T08:31:44.438Z,20.03
2022-12-20T08:34:16.605Z,19.70
2022-12-20T08:36:45.396Z,20.47
2022-12-20T08:39:14.121Z,19.30
2022-12-20T08:41:42.922Z,19.93
2022-12-20T08:44:13.035Z,19.60
2022-12-20T08:46:42.900Z,19.53
2022-12-20T08:49:11.585Z,18.10
2022-12-20T08:51:40.561Z,19.20
2022-12-20T08:54:09.251Z,18.63
2022-12-20T08:56:37.967Z,17.83
2022-12-20T08:59:07.347Z,18.13
2022-12-20T09:01:37.614Z,17.70
2022-12-20T09:04:07.281Z,19.53
2022-12-20T09:06:37.064Z,18.47
2022-12-20T09:09:07.178Z,18.17
2022-12-20T09:11:36.143Z,18.40
2022-12-20T09:14:05.373Z,17.27
2022-12-20T09:16:36.454Z,17.77
2022-12-20T09:19:06.619Z,18.23
2022-12-20T09:21:36.324Z,17.17
2022-12-20T09:24:05.695Z,17.23
2022-12-20T09:26:35.445Z,17.80
2022-12-20T09:29:05.321Z,17.60
2022-12-20T09:31:34.191Z,16.77
2022-12-20T09:34:04.521Z,17.53
2022-12-20T09:36:33.651Z,16.63
2022-12-20T09:39:02.236Z,17.40
2022-12-20T09:41:34.903Z,17.33
2022-12-20T09:44:12.548Z,17.67
2022-12-20T09:46:42.437Z,17.77
2022-12-20T09:49:17.519Z,19.07
2022-12-20T09:52:09.236Z,18.17
2022-12-20T09:54:45.909Z,18.00
2022-12-20T09:57:25.832Z,18.60
2022-12-20T09:59:58.175Z,18.33
2022-12-20T10:05:24.179Z,18.87
2022-12-20T10:08:00.922Z,19.70
2022-12-20T10:10:45.781Z,20.10
2022-12-20T10:13:30.715Z,19.33
2022-12-20T10:16:06.384Z,19.40
2022-12-20T10:18:49.702Z,18.30
2022-12-20T10:21:27.744Z,18.20
2022-12-20T10:24:02.706Z,17.33
2022-12-20T10:26:33.779Z,17.43
2022-12-20T10:29:02.529Z,17.03
2022-12-20T10:31:31.343Z,17.93
2022-12-20T10:33:59.950Z,17.23
2022-12-20T10:36:32.084Z,17.67
2022-12-20T10:39:02.523Z,17.97
2022-12-20T10:41:33.842Z,17.27
2022-12-20T10:44:04.823Z,16.97
2022-12-20T10:46:39.505Z,16.43
2022-12-20T10:49:31.382Z,15.77
2022-12-20T10:52:04.542Z,16.80
2022-12-20T10:54:36.208Z,15.97
2022-12-20T10:57:15.477Z,17.27
2022-12-20T10:59:47.386Z,16.00
2022-12-20T11:02:39.347Z,16.03
2022-12-20T11:05:24.301Z,15.83
2022-12-20T11:10:47.141Z,14.53
2022-12-20T11:13:26.004Z,15.27
2022-12-20T11:16:01.782Z,14.77
2022-12-20T11:18:45.041Z,14.63
2022-12-20T11:21:28.555Z,14.40
2022-12-20T11:24:07.263Z,13.83
2022-12-20T11:26:50.666Z,12.73
2022-12-20T11:29:39.060Z,14.17
2022-12-20T11:32:18.154Z,14.43
2022-12-20T11:35:00.945Z,14.70
2022-12-20T11:37:36.320Z,14.80
2022-12-20T11:40:23.391Z,15.63
2022-12-20T11:43:02.630Z,15.17
2022-12-20T11:45:40.099Z,14.93
2022-12-20T11:48:47.492Z,14.97
2022-12-20T11:51:26.997Z,15.07
2022-12-20T11:54:00.396Z,14.73
2022-12-20T11:56:43.263Z,15.33
2022-12-20T11:59:20.559Z,14.60
2022-12-20T12:01:57.994Z,15.37
2022-12-20T12:04:31.886Z,15.07
2022-12-20T12:07:04.995Z,14.97
2022-12-20T12:09:38.196Z,14.93
2022-12-20T12:12:14.109Z,14.50
2022-12-20T12:14:53.677Z,14.07
2022-12-20T12:17:31.193Z,14.70
2022-12-20T12:20:16.324Z,15.40
2022-12-20T12:22:46.693Z,14.20
2022-12-20T12:25:19.340Z,13.97
2022-12-20T12:27:49.828Z,14.00
2022-12-20T12:30:19.244Z,13.70
2022-12-20T12:32:54.016Z,13.97
2022-12-20T12:35:56.813Z,14.23
2022-12-20T12:38:56.945Z,14.77
2022-12-20T12:42:04.162Z,13.73
2022-12-20T12:44:41.892Z,13.17
2022-12-20T12:47:18.246Z,14.23
2022-12-20T12:49:51.587Z,13.43
2022-12-20T12:52:44.040Z,13.40
2022-12-20T12:55:41.441Z,12.17
2022-12-20T12:58:35.630Z,12.27
2022-12-20T13:01:09.108Z,12.37
2022-12-20T13:03:47.702Z,12.63
2022-12-20T13:06:46.051Z,13.47
2022-12-20T13:09:23.638Z,12.97
2022-12-20T13:12:00.427Z,13.63
2022-12-20T13:14:51.322Z,13.87
2022-12-20T13:17:49.885Z,13.17
2022-12-20T13:20:24.273Z,13.97
2022-12-20T13:23:17.947Z,14.23
2022-12-20T13:25:49.756Z,13.83
2022-12-20T13:28:47.061Z,14.10
2022-12-20T13:31:33.940Z,14.37
2022-12-20T13:34:04.349Z,14.13
2022-12-20T13:36:37.306Z,14.30
2022-12-20T13:39:35.206Z,14.23
2022-12-20T13:42:32.268Z,13.10
2022-12-20T13:45:05.670Z,13.53
2022-12-20T13:47:39.023Z,13.20
2022-12-20T13:50:38.794Z,13.67
2022-12-20T13:53:16.434Z,13.17
2022-12-20T13:55:45.411Z,13.33
2022-12-20T13:58:17.716Z,12.63
2022-12-20T14:00:47.792Z,11.83
2022-12-20T14:03:26.302Z,12.47
2022-12-20T14:06:00.373Z,12.30
2022-12-20T14:08:33.050Z,12.23
2022-12-20T14:11:12.534Z,12.03
2022-12-20T14:13:41.839Z,12.70
2022-12-20T14:16:14.944Z,12.00
2022-12-20T14:18:44.505Z,11.60
2022-12-20T14:21:14.815Z,12.10
2022-12-20T14:23:47.695Z,12.00
2022-12-20T14:26:19.788Z,12.27
2022-12-20T14:28:50.807Z,14.70
2022-12-20T14:31:28.162Z,14.70
2022-12-20T14:34:05.009Z,14.90
2022-12-20T14:36:36.289Z,14.40
2022-12-20T14:39:27.865Z,13.90
2022-12-20T14:42:00.766Z,14.83
2022-12-20T14:44:31.510Z,13.80
2022-12-20T14:47:02.075Z,13.83
2022-12-20T14:49:32.263Z,13.90
2022-12-20T14:52:15.853Z,13.53
2022-12-20T14:57:42.238Z,13.97
2022-12-20T15:00:22.700Z,13.83
2022-12-20T15:03:02.921Z,14.53
2022-12-20T15:05:52.014Z,14.27
2022-12-20T15:08:27.435Z,13.77
2022-12-20T15:11:00.033Z,14.77
2022-12-20T15:13:34.824Z,13.50
2022-12-20T15:16:05.786Z,14.17
2022-12-20T15:18:35.026Z,14.27
2022-12-20T15:21:09.256Z,14.40
2022-12-20T15:23:45.321Z,14.73
2022-12-20T15:26:17.009Z,15.33
2022-12-20T15:28:45.746Z,15.30
2022-12-20T15:31:16.739Z,15.27
2022-12-20T15:33:47.594Z,15.30
2022-12-20T15:36:19.415Z,15.33
2022-12-20T15:41:42.052Z,15.33
2022-12-20T15:44:15.718Z,15.17
2022-12-20T15:46:44.899Z,15.40
2022-12-20T15:49:17.020Z,14.83
2022-12-20T15:51:47.947Z,15.13
2022-12-20T15:54:24.297Z,15.00
2022-12-20T15:56:53.409Z,15.37
2022-12-20T15:59:58.200Z,16.27
2022-12-20T16:02:22.495Z,15.23
2022-12-20T16:04:51.770Z,15.43
2022-12-20T16:07:20.527Z,15.87
2022-12-20T16:09:50.685Z,16.87
2022-12-20T16:12:24.049Z,25.00
2022-12-20T16:14:52.702Z,17.47
2022-12-20T16:17:21.436Z,15.93
2022-12-20T16:19:50.152Z,16.30
2022-12-20T16:22:22.259Z,15.67
2022-12-20T16:24:53.076Z,15.63
2022-12-20T16:27:21.973Z,17.00
2022-12-20T16:29:53.628Z,16.07
2022-12-20T16:32:23.519Z,15.93
2022-12-20T16:34:52.716Z,15.80
2022-12-20T16:37:21.478Z,17.20
2022-12-20T16:39:51.666Z,17.37
2022-12-20T16:42:22.688Z,18.13
2022-12-20T16:44:53.334Z,16.60
2022-12-20T16:47:22.468Z,17.97
2022-12-20T16:49:53.853Z,18.07
2022-12-20T16:52:23.850Z,18.13
2022-12-20T16:54:54.043Z,17.80
2022-12-20T16:57:22.726Z,17.53
2022-12-20T16:59:51.519Z,17.63
2022-12-20T17:02:25.660Z,16.50
2022-12-20T17:04:54.366Z,16.33
2022-12-20T17:07:23.486Z,17.70
2022-12-20T17:09:59.588Z,17.60
2022-12-20T17:12:28.267Z,16.47
2022-12-20T17:15:00.797Z,17.57
2022-12-20T17:17:29.558Z,17.50
2022-12-20T17:19:58.945Z,17.70
2022-12-20T17:22:39.906Z,17.20
2022-12-20T17:25:19.844Z,17.20
2022-12-20T17:27:48.817Z,17.63
2022-12-20T17:30:17.762Z,17.60
2022-12-20T17:32:46.508Z,18.00
2022-12-20T17:35:25.775Z,18.37
2022-12-20T17:37:56.327Z,17.97
2022-12-20T17:40:30.894Z,18.07
2022-12-20T17:42:59.695Z,19.17
2022-12-20T17:45:48.315Z,18.70
2022-12-20T17:48:19.167Z,18.60
2022-12-20T17:50:47.869Z,17.70
2022-12-20T17:53:16.538Z,18.87
2022-12-20T17:55:46.662Z,17.90
2022-12-20T17:58:15.949Z,17.77
2022-12-20T18:00:44.746Z,17.83
2022-12-20T18:03:45.125Z,18.30
2022-12-20T18:06:07.737Z,17.90
2022-12-20T18:08:37.051Z,18.43
2022-12-20T18:11:07.509Z,19.10
2022-12-20T18:13:36.277Z,20.40
2022-12-20T18:16:08.817Z,20.37
2022-12-20T18:18:37.605Z,21.00
2022-12-20T18:21:08.191Z,19.20
2022-12-20T18:23:37.580Z,19.57
2022-12-20T18:26:10.053Z,19.93
2022-12-20T18:28:38.816Z,20.20
2022-12-20T18:31:09.339Z,19.63
2022-12-20T18:33:39.598Z,20.47
2022-12-20T18:36:10.532Z,19.80
2022-12-20T18:38:41.549Z,20.87
2022-12-20T18:41:15.023Z,21.07
2022-12-20T18:43:43.913Z,20.13
2022-12-20T18:46:14.605Z,22.00
2022-12-20T18:48:45.431Z,20.93
2022-12-20T18:51:21.115Z,20.63
2022-12-20T18:53:51.745Z,19.30
2022-12-20T18:56:25.013Z,20.33
2022-12-20T18:58:54.199Z,20.20
2022-12-20T19:01:25.390Z,20.00
2022-12-20T19:03:55.308Z,19.27
2022-12-20T19:06:25.121Z,19.77
2022-12-20T19:08:53.928Z,19.70
2022-12-20T19:11:25.413Z,19.37
2022-12-20T19:13:54.213Z,19.30
2022-12-20T19:16:28.209Z,19.43
2022-12-20T19:18:58.632Z,19.50
2022-12-20T19:21:29.696Z,19.37
2022-12-20T19:24:49.201Z,19.20
2022-12-20T19:27:19.204Z,19.50
2022-12-20T19:29:49.977Z,20.90
2022-12-20T19:32:18.802Z,20.20
2022-12-20T19:34:47.445Z,20.50
2022-12-20T19:37:16.310Z,19.53
2022-12-20T19:39:45.041Z,20.80
2022-12-20T19:42:29.161Z,20.80
2022-12-20T19:45:03.251Z,20.13
2022-12-20T19:47:33.756Z,19.47
2022-12-20T19:50:02.525Z,19.83
2022-12-20T19:52:31.267Z,19.50
2022-12-20T19:55:00.253Z,20.27
2022-12-20T19:57:29.092Z,19.63
2022-12-20T20:00:24.788Z,19.43
2022-12-20T20:02:59.393Z,19.80
2022-12-20T20:05:28.452Z,19.70
2022-12-20T20:07:57.144Z,19.40
2022-12-20T20:10:26.117Z,20.10
2022-12-20T20:13:24.098Z,18.60
2022-12-20T20:15:56.178Z,18.73
2022-12-20T20:18:26.002Z,19.57
2022-12-20T20:20:55.122Z,19.27
2022-12-20T20:23:26.251Z,20.00
2022-12-20T20:25:57.996Z,19.37
2022-12-20T20:28:31.900Z,18.37
2022-12-20T20:31:04.530Z,18.83
2022-12-20T20:33:33.707Z,18.30
2022-12-20T20:36:03.178Z,18.97
2022-12-20T20:38:34.265Z,19.50
2022-12-20T20:41:03.068Z,19.77
2022-12-20T20:43:37.777Z,19.23
2022-12-20T20:46:11.621Z,18.90
2022-12-20T20:48:41.199Z,18.97
2022-12-20T20:51:10.391Z,19.63
2022-12-20T20:53:39.502Z,19.93
2022-12-20T20:56:09.790Z,18.93
2022-12-20T20:58:39.589Z,19.60
2022-12-20T21:01:10.380Z,19.20
2022-12-20T21:03:40.311Z,19.20
2022-12-20T21:08:59.013Z,18.10
2022-12-20T21:11:28.924Z,17.97
2022-12-20T21:13:58.243Z,17.87
2022-12-20T21:16:28.635Z,19.60
2022-12-20T21:18:59.268Z,17.93
2022-12-20T21:21:29.094Z,19.27
2022-12-20T21:23:57.823Z,18.70
2022-12-20T21:26:26.931Z,19.40
2022-12-20T21:28:58.731Z,19.80
2022-12-20T21:31:29.047Z,18.30
2022-12-20T21:33:58.338Z,18.53
2022-12-20T21:36:27.258Z,19.27
2022-12-20T21:38:57.651Z,17.57
2022-12-20T21:41:28.558Z,19.30
2022-12-20T21:43:58.085Z,18.13
2022-12-20T21:46:32.003Z,18.80
2022-12-20T21:49:01.326Z,19.03
2022-12-20T21:51:31.740Z,19.07
2022-12-20T21:54:02.229Z,18.33
2022-12-20T21:56:34.260Z,18.50
2022-12-20T21:59:04.069Z,18.23
2022-12-20T22:01:34.475Z,17.83
2022-12-20T22:04:05.539Z,18.47
2022-12-20T22:06:34.756Z,18.20
2022-12-20T22:09:06.881Z,18.73
2022-12-20T22:11:36.798Z,18.43
2022-12-20T22:14:05.522Z,18.67
2022-12-20T22:16:36.352Z,18.23
2022-12-20T22:19:05.954Z,18.30
2022-12-20T22:21:36.953Z,18.83
2022-12-20T22:24:06.373Z,18.33
2022-12-20T22:26:36.003Z,18.13
2022-12-20T22:29:06.942Z,17.97
2022-12-20T22:31:37.900Z,18.73
2022-12-20T22:34:06.774Z,18.63
2022-12-20T22:36:35.933Z,17.73
2022-12-20T22:39:05.600Z,18.73
2022-12-20T22:41:35.967Z,17.63
2022-12-20T22:44:05.081Z,18.23
2022-12-20T22:46:33.815Z,19.07
2022-12-20T22:49:04.528Z,19.60
2022-12-20T22:51:34.012Z,18.87
2022-12-20T22:54:02.985Z,19.00
2022-12-20T22:56:31.682Z,19.77
2022-12-20T22:59:00.418Z,19.00
2022-12-20T23:01:29.302Z,20.17
2022-12-20T23:03:58.070Z,20.73
2022-12-20T23:06:30.723Z,21.23
2022-12-20T23:08:59.526Z,21.60
2022-12-20T23:11:47.380Z,22.30
2022-12-20T23:14:35.204Z,21.40
2022-12-20T23:17:04.756Z,22.57
2022-12-20T23:19:54.264Z,22.80
2022-12-20T23:22:40.472Z,21.97
2022-12-20T23:25:11.921Z,21.57
2022-12-20T23:27:41.470Z,20.87
2022-12-20T23:30:12.792Z,21.60
2022-12-20T23:32:44.763Z,21.80
2022-12-20T23:35:14.206Z,21.73
2022-12-20T23:37:45.630Z,22.23
2022-12-20T23:40:16.389Z,22.03
2022-12-20T23:42:45.279Z,20.80
2022-12-20T23:45:14.095Z,20.53
2022-12-20T23:47:42.748Z,21.73
2022-12-20T23:50:12.044Z,21.87
2022-12-20T23:52:40.808Z,21.33
2022-12-20T23:55:11.429Z,22.70
2022-12-20T23:57:40.137Z,22.50
